»·PEaware :: EAL210 KABQ-KASE

EAL210 :: KABQ-KASE

FLIGHT INFORMATION

Flight Status: Arrived
Operator:
Eastern Air Lines
More flights by this operator :: More flights under this callsign
Pilot: Anonymous 16446 (16446)
Aircraft: BOEING 727-100
(B721)
More flights by this aircraft type
Origin: KABQ Albuquerque Intl Sunport
United States
Destination: KASE Aspen-Pitkin Co/Sardy
United States
More flights between these airports :: More routes between these airports
Route: ABQ3 RSK HBU
File this flight plan on PilotEdge
Remarks: Request Roaring Fork Visual from Castle Peak
Altitude:
(Current/Filed)
32,000ft
Speed:
(Current/Filed)
450kts
Departed: 08-Dec-17 10:57 PM
Arrived: 09-Dec-17 12:01 AM
Distance/Time
Traveled:
251nm/1:03
Distance/Time
To Go:
Arrived

Flight Plot

Page will automatically refresh every two minutes.

Flight plan parsing failed; only flown route is shown


Map Options




Map Legend


Flown Route
Filed Route
Departure Airport
Arrival Airport
Navaid (VOR, NDB)
Fix

Horizontal Profiles

Position Reports

Time Latitude Longitude Heading Altitude Ground
Speed
08-Dec-17 22:38 35.046895 -106.616389 11 5324ft 0kts
08-Dec-17 22:39 35.046895 -106.616389 11 5324ft 0kts
08-Dec-17 22:40 35.046895 -106.616389 11 5324ft 0kts
08-Dec-17 22:41 35.046895 -106.616389 11 5324ft 0kts
08-Dec-17 22:42 35.046895 -106.616389 11 5324ft 0kts
08-Dec-17 22:43 35.046895 -106.616389 11 5324ft 0kts
08-Dec-17 22:44 35.046895 -106.616389 11 5324ft 0kts
08-Dec-17 22:45 35.046895 -106.616389 11 5324ft 0kts
08-Dec-17 22:46 35.046895 -106.616389 11 5324ft 0kts
08-Dec-17 22:47 35.046895 -106.616389 11 5324ft 0kts
08-Dec-17 22:48 35.046895 -106.616389 11 5324ft 0kts
08-Dec-17 22:49 35.046607 -106.616371 339 5324ft 2kts
08-Dec-17 22:50 35.046251 -106.615815 274 5324ft 2kts
08-Dec-17 22:51 35.046255 -106.615614 268 5324ft 0kts
08-Dec-17 22:52 35.046255 -106.615614 268 5324ft 0kts
08-Dec-17 22:53 35.046255 -106.615614 268 5324ft 0kts
08-Dec-17 22:54 35.046255 -106.615614 268 5324ft 0kts
08-Dec-17 22:55 35.046255 -106.615614 268 5324ft 0kts
08-Dec-17 22:56 35.046094 -106.616189 239 5324ft 7kts
08-Dec-17 22:57 35.045604 -106.619568 268 5324ft 11kts
08-Dec-17 22:58 35.045314 -106.621338 191 5324ft 0kts
08-Dec-17 22:59 35.045314 -106.621338 191 5324ft 0kts
08-Dec-17 23:00 35.045314 -106.621338 191 5324ft 0kts
08-Dec-17 23:01 35.044356 -106.620887 92 5324ft 7kts
08-Dec-17 23:02 35.043958 -106.586962 89 5412ft 174kts
08-Dec-17 23:03 35.039501 -106.518081 87 7709ft 222kts
08-Dec-17 23:04 35.042931 -106.437701 84 10954ft 256kts
08-Dec-17 23:05 35.044018 -106.347352 84 14317ft 279kts
08-Dec-17 23:06 35.044958 -106.250571 85 17371ft 295kts
08-Dec-17 23:07 35.059248 -106.157803 36 19643ft 262kts
08-Dec-17 23:08 35.123386 -106.190453 307 20433ft 304kts
08-Dec-17 23:09 35.192601 -106.253029 324 21690ft 318kts
08-Dec-17 23:10 35.259517 -106.325372 320 23464ft 326kts
08-Dec-17 23:11 35.326256 -106.402002 320 25045ft 333kts
08-Dec-17 23:12 35.394074 -106.480700 320 26484ft 340kts
08-Dec-17 23:13 35.463338 -106.561326 320 27791ft 347kts
08-Dec-17 23:14 35.533794 -106.643574 320 29015ft 353kts
08-Dec-17 23:15 35.603968 -106.727141 319 30124ft 359kts
08-Dec-17 23:16 35.676510 -106.812670 319 31176ft 365kts
08-Dec-17 23:17 35.750446 -106.899531 318 32085ft 372kts
08-Dec-17 23:18 35.825783 -106.988567 317 32913ft 380kts
08-Dec-17 23:19 35.902630 -107.079595 317 33719ft 387kts
08-Dec-17 23:20 35.978291 -107.169493 317 34567ft 392kts
08-Dec-17 23:21 36.057092 -107.263351 317 35362ft 397kts
08-Dec-17 23:22 36.134485 -107.354620 317 36088ft 402kts
08-Dec-17 23:23 36.215868 -107.451385 317 36432ft 418kts
08-Dec-17 23:24 36.301205 -107.553894 317 36427ft 436kts
08-Dec-17 23:25 36.388167 -107.658880 315 36426ft 448kts
08-Dec-17 23:26 36.476527 -107.767872 316 36419ft 450kts
08-Dec-17 23:27 36.565434 -107.875813 316 36418ft 444kts
08-Dec-17 23:28 36.652342 -107.981715 316 36414ft 432kts
08-Dec-17 23:29 36.736551 -108.084648 316 36413ft 419kts
08-Dec-17 23:30 36.836912 -108.133922 12 36430ft 407kts
08-Dec-17 23:31 36.915471 -108.036380 52 36416ft 409kts
08-Dec-17 23:32 36.993745 -107.950223 24 36416ft 378kts
08-Dec-17 23:33 37.085167 -107.891629 21 36418ft 364kts
08-Dec-17 23:34 37.172114 -107.838448 20 36428ft 352kts
08-Dec-17 23:35 37.258427 -107.785027 20 36425ft 340kts
08-Dec-17 23:36 37.342086 -107.745277 351 36477ft 304kts
08-Dec-17 23:37 37.423864 -107.724542 16 36423ft 300kts
08-Dec-17 23:39 37.498052 -107.680665 20 36462ft 299kts
08-Dec-17 23:40 37.574184 -107.631056 21 36482ft 321kts
08-Dec-17 23:41 37.657440 -107.575869 22 36495ft 356kts
08-Dec-17 23:42 37.753988 -107.511577 23 34793ft 413kts
08-Dec-17 23:43 37.854213 -107.444373 23 34330ft 406kts
08-Dec-17 23:44 37.952767 -107.378339 23 33350ft 398kts
08-Dec-17 23:45 38.047002 -107.313746 24 32147ft 388kts
08-Dec-17 23:46 38.135640 -107.254288 23 30777ft 370kts
08-Dec-17 23:47 38.224274 -107.194554 25 27624ft 352kts
08-Dec-17 23:48 38.307708 -107.137955 25 24695ft 332kts
08-Dec-17 23:49 38.386825 -107.084208 26 21766ft 317kts
08-Dec-17 23:50 38.462895 -107.032967 20 18903ft 304kts
08-Dec-17 23:51 38.544342 -107.009355 13 17060ft 296kts
08-Dec-17 23:52 38.601388 -106.991463 14 16367ft 279kts
08-Dec-17 23:53 38.667843 -106.970158 14 15981ft 234kts
08-Dec-17 23:54 38.724979 -106.951716 14 15971ft 196kts
08-Dec-17 23:55 38.775886 -106.935215 14 15979ft 183kts
08-Dec-17 23:56 38.825588 -106.919099 13 16040ft 209kts
08-Dec-17 23:57 38.890080 -106.898147 13 15975ft 253kts
08-Dec-17 23:58 38.956992 -106.876131 12 15971ft 234kts
08-Dec-17 23:59 39.014461 -106.841851 25 14255ft 259kts
09-Dec-17 00:00 39.067311 -106.805837 19 14126ft 201kts
09-Dec-17 00:01 39.118085 -106.784616 8 13481ft 198kts
09-Dec-17 00:02 39.170170 -106.783898 340 12537ft 190kts
09-Dec-17 00:03 39.219853 -106.810025 327 11209ft 201kts
09-Dec-17 00:04 39.265514 -106.841290 321 9652ft 170kts
09-Dec-17 00:05 39.273887 -106.881563 197 8288ft 194kts
09-Dec-17 00:06 39.230111 -106.872133 163 7787ft 136kts
09-Dec-17 00:07 39.219457 -106.866181 34 7785ft 1kts
09-Dec-17 00:08 39.221756 -106.867001 338 7785ft 9kts
09-Dec-17 00:09 39.221572 -106.866354 118 7785ft 0kts
09-Dec-17 00:10 39.221572 -106.866354 118 7785ft 0kts
09-Dec-17 00:11 39.246768 -106.880062 166 8002ft 153kts
09-Dec-17 00:12 39.246022 -106.879763 165 7994ft 153kts
09-Dec-17 00:13 39.246022 -106.879763 165 7994ft 153kts
09-Dec-17 00:14 39.246022 -106.879763 165 7994ft 153kts
09-Dec-17 00:14 39.239942 -106.876816 162 7894ft 147kts
09-Dec-17 00:16 39.221572 -106.866354 118 7785ft 0kts
09-Dec-17 00:17 39.221572 -106.866354 118 7785ft 0kts
09-Dec-17 00:18 39.221572 -106.866354 118 7785ft 0kts
09-Dec-17 00:19 39.221572 -106.866354 118 7785ft 0kts
09-Dec-17 00:19 39.221572 -106.866354 118 7785ft 0kts
09-Dec-17 00:20 39.221572 -106.866354 118 7785ft 0kts

Navigation Log

Ident Type
Flight plan parsing failed, navigation log unavailable